createdAt,value
2023-05-09T00:02:06.216Z,14.89
2023-05-09T00:07:08.090Z,14.78
2023-05-09T00:12:09.951Z,14.77
2023-05-09T00:17:14.549Z,14.57
2023-05-09T00:22:17.776Z,14.67
2023-05-09T00:27:19.626Z,14.71
2023-05-09T00:32:21.468Z,14.92
2023-05-09T00:37:23.671Z,14.69
2023-05-09T00:42:25.518Z,14.14
2023-05-09T00:47:30.727Z,13.73
2023-05-09T00:52:33.749Z,13.74
2023-05-09T00:57:36.343Z,13.89
2023-05-09T01:02:42.128Z,13.37
2023-05-09T01:08:16.424Z,13.76
2023-05-09T01:13:30.588Z,14.07
2023-05-09T01:18:51.874Z,14.40
2023-05-09T01:24:24.845Z,14.45
2023-05-09T01:29:47.706Z,14.14
2023-05-09T01:34:53.045Z,14.48
2023-05-09T01:39:58.411Z,14.51
2023-05-09T01:45:00.754Z,14.40
2023-05-09T01:50:05.404Z,14.08
2023-05-09T01:55:08.650Z,14.18
2023-05-09T02:00:13.314Z,14.17
2023-05-09T02:05:17.711Z,14.19
2023-05-09T02:10:20.849Z,14.13
2023-05-09T02:15:23.878Z,13.64
2023-05-09T02:20:25.693Z,14.10
2023-05-09T02:25:27.987Z,14.00
2023-05-09T02:30:36.839Z,13.71
2023-05-09T02:35:42.305Z,14.06
2023-05-09T02:40:44.691Z,14.07
2023-05-09T02:45:46.584Z,14.12
2023-05-09T02:50:48.403Z,14.16
2023-05-09T02:55:50.451Z,14.19
2023-05-09T03:00:52.235Z,14.31
2023-05-09T03:05:54.287Z,14.32
2023-05-09T03:10:57.136Z,14.01
2023-05-09T03:15:59.181Z,13.85
2023-05-09T03:21:01.049Z,13.82
2023-05-09T03:26:04.411Z,14.02
2023-05-09T03:31:06.934Z,14.13
2023-05-09T03:36:09.178Z,14.09
2023-05-09T03:41:13.649Z,14.11
2023-05-09T03:46:15.853Z,14.01
2023-05-09T03:51:20.979Z,13.66
2023-05-09T03:56:24.209Z,13.85
2023-05-09T04:01:27.336Z,13.81
2023-05-09T04:06:33.236Z,13.80
2023-05-09T04:11:35.850Z,14.05
2023-05-09T04:16:44.297Z,14.06
2023-05-09T04:21:46.203Z,14.10
2023-05-09T04:26:48.346Z,14.03
2023-05-09T04:31:54.879Z,14.36
2023-05-09T04:37:00.170Z,14.49
2023-05-09T04:42:02.661Z,14.39
2023-05-09T04:47:04.777Z,14.54
2023-05-09T04:52:07.147Z,14.58
2023-05-09T04:57:17.211Z,14.62
2023-05-09T05:02:22.879Z,14.81
2023-05-09T05:07:27.554Z,14.57
2023-05-09T05:12:29.570Z,14.91
2023-05-09T05:17:31.617Z,15.03
2023-05-09T05:22:36.444Z,14.71
2023-05-09T05:27:38.460Z,14.63
2023-05-09T05:32:41.798Z,15.00
2023-05-09T05:37:44.328Z,14.86
2023-05-09T05:42:47.168Z,15.14
2023-05-09T05:47:49.201Z,15.10
2023-05-09T05:52:51.945Z,14.97
2023-05-09T05:57:54.508Z,14.96
2023-05-09T06:02:56.527Z,14.96
2023-05-09T06:08:08.253Z,15.42
2023-05-09T06:13:10.278Z,15.78
2023-05-09T06:18:15.007Z,15.20
2023-05-09T06:23:22.114Z,15.18
2023-05-09T06:28:23.971Z,15.14
2023-05-09T06:33:25.725Z,15.42
2023-05-09T06:38:27.526Z,15.58
2023-05-09T06:43:29.304Z,14.62
2023-05-09T06:48:31.092Z,14.10
2023-05-09T06:53:32.839Z,15.26
2023-05-09T06:58:34.848Z,15.90
2023-05-09T07:03:36.645Z,15.32
2023-05-09T07:08:38.650Z,13.25
2023-05-09T07:13:40.526Z,14.22
2023-05-09T07:18:42.310Z,13.08
2023-05-09T07:23:44.062Z,10.45
2023-05-09T07:28:45.888Z,10.87
2023-05-09T07:33:47.707Z,11.77
2023-05-09T07:38:52.576Z,11.12
2023-05-09T07:43:57.516Z,11.69
2023-05-09T07:48:59.296Z,10.98
2023-05-09T07:54:01.314Z,10.33
2023-05-09T07:59:03.452Z,10.73
2023-05-09T08:04:06.705Z,9.98
2023-05-09T08:09:08.847Z,11.26
2023-05-09T08:14:10.901Z,11.89
2023-05-09T08:19:12.678Z,11.20
2023-05-09T08:24:14.415Z,11.02
2023-05-09T08:29:17.729Z,13.20
2023-05-09T08:34:20.917Z,14.64
2023-05-09T08:39:22.729Z,12.26
2023-05-09T08:44:25.918Z,13.06
2023-05-09T08:49:28.362Z,10.45
2023-05-09T08:54:30.382Z,10.78
2023-05-09T08:59:35.134Z,11.24
2023-05-09T09:04:37.058Z,11.10
2023-05-09T09:09:45.256Z,9.79
2023-05-09T09:14:50.244Z,11.21
2023-05-09T09:19:55.976Z,12.97
2023-05-09T09:24:57.803Z,13.29
2023-05-09T09:30:10.702Z,14.48
2023-05-09T09:35:12.538Z,15.72
2023-05-09T09:40:14.689Z,16.65
2023-05-09T09:45:18.377Z,13.69
2023-05-09T09:50:23.253Z,13.35
2023-05-09T09:55:25.216Z,14.77
2023-05-09T10:00:28.374Z,15.14
2023-05-09T10:05:31.484Z,16.54
2023-05-09T10:10:38.170Z,15.44
2023-05-09T10:15:52.179Z,15.70
2023-05-09T10:20:56.743Z,16.18
2023-05-09T10:26:18.699Z,16.15
2023-05-09T10:31:28.401Z,16.07
2023-05-09T10:36:31.186Z,13.55
2023-05-09T10:41:33.508Z,12.96
2023-05-09T10:46:36.018Z,11.29
2023-05-09T10:51:37.963Z,12.13
2023-05-09T10:56:39.908Z,14.31
2023-05-09T11:01:41.697Z,15.50
2023-05-09T11:06:54.019Z,16.92
2023-05-09T11:11:58.341Z,15.34
2023-05-09T11:17:03.069Z,12.95
2023-05-09T11:22:15.052Z,14.30
2023-05-09T11:27:20.733Z,12.95
2023-05-09T11:32:28.444Z,14.17
2023-05-09T11:37:31.147Z,16.34
2023-05-09T11:42:32.987Z,13.79
2023-05-09T11:47:36.935Z,15.18
2023-05-09T11:52:39.341Z,14.63
2023-05-09T11:57:44.208Z,14.18
2023-05-09T12:02:47.616Z,15.29
2023-05-09T12:07:50.210Z,16.69
2023-05-09T12:12:55.479Z,15.60
2023-05-09T12:18:05.868Z,17.07
2023-05-09T12:23:09.685Z,17.96
2023-05-09T12:28:11.525Z,18.11
2023-05-09T12:33:13.470Z,15.85
2023-05-09T12:38:21.712Z,16.29
2023-05-09T12:43:23.518Z,16.96
2023-05-09T12:48:25.674Z,16.33
2023-05-09T12:53:31.157Z,15.68
2023-05-09T12:58:33.574Z,14.96
2023-05-09T13:03:38.005Z,15.31
2023-05-09T13:08:40.992Z,16.11
2023-05-09T13:13:43.067Z,17.29
2023-05-09T13:18:44.841Z,17.96
2023-05-09T13:23:46.694Z,16.94
2023-05-09T13:28:48.770Z,15.65
2023-05-09T13:33:51.988Z,14.82
2023-05-09T13:38:54.171Z,14.25
2023-05-09T13:43:55.950Z,13.50
2023-05-09T13:48:57.674Z,14.77
2023-05-09T13:53:59.468Z,15.50
2023-05-09T13:59:01.328Z,13.78
2023-05-09T14:04:03.344Z,13.97
2023-05-09T14:09:05.151Z,13.76
2023-05-09T14:14:07.104Z,13.04
2023-05-09T14:19:09.134Z,12.58
2023-05-09T14:24:15.073Z,14.25
2023-05-09T14:29:17.715Z,14.59
2023-05-09T14:34:19.486Z,15.54
2023-05-09T14:39:21.323Z,15.91
2023-05-09T14:44:25.042Z,15.92
2023-05-09T14:49:26.932Z,15.97
2023-05-09T14:54:28.762Z,14.55
2023-05-09T14:59:30.661Z,14.84
2023-05-09T15:04:32.570Z,16.02
2023-05-09T15:09:34.428Z,16.69
2023-05-09T15:14:36.721Z,16.90
2023-05-09T15:19:38.704Z,17.28
2023-05-09T15:24:44.204Z,15.53
2023-05-09T15:29:46.623Z,13.25
2023-05-09T15:34:48.426Z,12.20
2023-05-09T15:39:50.391Z,13.10
2023-05-09T15:44:52.827Z,12.98
2023-05-09T15:49:54.691Z,14.47
2023-05-09T15:54:56.615Z,15.67
2023-05-09T15:59:58.460Z,15.25
2023-05-09T16:05:00.292Z,16.17
2023-05-09T16:10:02.159Z,16.01
2023-05-09T16:15:04.723Z,14.50
2023-05-09T16:20:09.130Z,12.12
2023-05-09T16:25:11.107Z,12.85
2023-05-09T16:30:13.620Z,9.81
2023-05-09T16:35:15.665Z,10.36
2023-05-09T16:40:18.765Z,8.58
2023-05-09T16:45:20.716Z,9.74
2023-05-09T16:50:23.250Z,10.39
2023-05-09T16:55:25.088Z,10.56
2023-05-09T17:00:27.207Z,11.39
2023-05-09T17:05:29.270Z,10.87
2023-05-09T17:10:31.120Z,12.78
2023-05-09T17:15:34.290Z,12.22
2023-05-09T17:20:36.098Z,13.55
2023-05-09T17:25:37.877Z,11.42
2023-05-09T17:30:39.824Z,10.88
2023-05-09T17:35:41.674Z,11.22
2023-05-09T17:40:44.277Z,10.56
2023-05-09T17:45:46.422Z,9.68
2023-05-09T17:50:48.424Z,7.24
2023-05-09T17:55:50.789Z,7.85
2023-05-09T18:00:55.015Z,8.25
2023-05-09T18:05:57.226Z,8.42
2023-05-09T18:10:59.055Z,8.38
2023-05-09T18:16:01.813Z,8.89
2023-05-09T18:21:05.297Z,9.23
2023-05-09T18:26:08.490Z,9.01
2023-05-09T18:31:11.884Z,10.31
2023-05-09T18:36:15.180Z,9.09
2023-05-09T18:41:17.323Z,11.33
2023-05-09T18:46:21.104Z,12.05
2023-05-09T18:51:24.088Z,13.02
2023-05-09T18:56:25.850Z,12.29
2023-05-09T19:01:27.691Z,12.19
2023-05-09T19:06:29.664Z,13.48
2023-05-09T19:11:31.702Z,13.57
2023-05-09T19:16:33.796Z,11.87
2023-05-09T19:21:36.141Z,12.94
2023-05-09T19:26:38.068Z,13.40
2023-05-09T19:31:39.948Z,13.77
2023-05-09T19:36:41.776Z,14.11
2023-05-09T19:41:43.981Z,14.35
2023-05-09T19:46:45.922Z,14.31
2023-05-09T19:51:47.838Z,13.84
2023-05-09T19:56:49.681Z,14.09
2023-05-09T20:01:51.456Z,13.69
2023-05-09T20:06:54.108Z,14.50
2023-05-09T20:11:55.926Z,14.61
2023-05-09T20:16:57.892Z,14.90
2023-05-09T20:22:01.229Z,14.51
2023-05-09T20:27:03.353Z,11.63
2023-05-09T20:32:05.397Z,13.12
2023-05-09T20:37:07.682Z,13.23
2023-05-09T20:42:09.710Z,12.86
2023-05-09T20:47:11.441Z,8.03
2023-05-09T20:52:13.254Z,8.53
2023-05-09T20:57:15.016Z,10.17
2023-05-09T21:02:16.803Z,10.27
2023-05-09T21:07:19.421Z,10.66
2023-05-09T21:12:21.507Z,11.97
2023-05-09T21:17:23.287Z,12.48
2023-05-09T21:22:25.060Z,12.78
2023-05-09T21:27:27.082Z,11.55
2023-05-09T21:32:29.039Z,10.75
2023-05-09T21:37:30.863Z,10.44
2023-05-09T21:42:32.706Z,10.47
2023-05-09T21:47:34.567Z,9.79
2023-05-09T21:52:36.544Z,11.76
2023-05-09T21:57:38.411Z,9.96
2023-05-09T22:02:42.929Z,11.19
2023-05-09T22:07:44.845Z,11.30
2023-05-09T22:12:46.724Z,11.52
2023-05-09T22:17:48.577Z,9.39
2023-05-09T22:22:50.305Z,9.68
2023-05-09T22:27:52.048Z,11.43
2023-05-09T22:32:53.808Z,12.02
2023-05-09T22:37:55.787Z,12.25
2023-05-09T22:42:57.588Z,11.93
2023-05-09T22:47:59.466Z,10.34
2023-05-09T22:53:01.769Z,11.07
2023-05-09T22:58:03.764Z,11.04
2023-05-09T23:03:05.689Z,11.29
2023-05-09T23:08:07.485Z,11.56
2023-05-09T23:13:09.346Z,12.22
2023-05-09T23:18:11.190Z,12.96
2023-05-09T23:23:12.925Z,13.27
2023-05-09T23:28:14.724Z,13.50
2023-05-09T23:33:16.768Z,13.24
2023-05-09T23:38:18.807Z,10.72
2023-05-09T23:43:20.608Z,9.32
2023-05-09T23:48:23.274Z,7.94
2023-05-09T23:53:25.586Z,10.03
2023-05-09T23:58:27.398Z,10.32
